Time,TemperatureF,DewpointF,PressureIn,WindDirection,WindDirectionDegrees,WindSpeedMPH,WindSpeedGustMPH,Humidity,HourlyPrecipIn,Conditions,Clouds,dailyrainin,SoftwareType,DateUTC
2013-09-08 00:03:00,79.3,72.7,29.87,SE,135,4.0,7.0,80,0.00,,,0.00,meteohub,2013-09-08 05:03:00,
2013-09-08 00:08:00,79.3,72.7,29.87,East,97,3.0,7.0,80,0.00,,,0.00,meteohub,2013-09-08 05:08:00,
2013-09-08 00:13:00,79.3,72.7,29.86,ESE,121,2.0,6.0,80,0.00,,,0.00,meteohub,2013-09-08 05:13:00,
2013-09-08 00:18:00,79.2,72.5,29.87,ESE,103,2.0,6.0,80,0.00,,,0.00,meteohub,2013-09-08 05:18:00,
2013-09-08 00:23:00,79.2,72.5,29.87,ESE,117,3.0,5.0,80,0.00,,,0.00,meteohub,2013-09-08 05:23:00,
2013-09-08 00:28:00,79.0,72.3,29.87,ESE,120,3.0,4.0,80,0.00,,,0.00,meteohub,2013-09-08 05:28:00,
2013-09-08 00:34:00,79.0,72.3,29.87,SE,129,3.0,4.0,80,0.00,,,0.00,meteohub,2013-09-08 05:34:00,
2013-09-08 00:39:00,78.8,72.1,29.87,SE,143,3.0,4.0,80,0.00,,,0.00,meteohub,2013-09-08 05:39:00,
2013-09-08 00:44:00,78.8,72.1,29.87,SE,135,2.0,4.0,80,0.00,,,0.00,meteohub,2013-09-08 05:44:00,
2013-09-08 00:49:00,78.8,72.1,29.87,SE,127,2.0,4.0,80,0.00,,,0.00,meteohub,2013-09-08 05:49:00,
2013-09-08 00:54:00,78.8,72.1,29.86,ESE,117,3.0,3.0,80,0.00,,,0.00,meteohub,2013-09-08 05:54:00,
2013-09-08 00:59:00,78.6,72.0,29.86,ESE,118,3.0,4.0,80,0.00,,,0.00,meteohub,2013-09-08 05:59:00,
2013-09-08 01:04:00,78.6,72.0,29.86,ESE,113,1.0,5.0,80,0.00,,,0.00,meteohub,2013-09-08 06:04:00,
2013-09-08 01:09:00,78.4,71.8,29.86,ENE,70,2.0,5.0,80,0.00,,,0.00,meteohub,2013-09-08 06:09:00,
2013-09-08 01:14:00,78.4,71.8,29.86,East,91,0.0,5.0,80,0.00,,,0.00,meteohub,2013-09-08 06:14:00,
2013-09-08 01:19:00,78.4,71.8,29.86,East,91,0.0,5.0,80,0.00,,,0.00,meteohub,2013-09-08 06:19:00,
2013-09-08 01:24:00,78.4,71.8,29.86,East,91,0.0,2.0,80,0.00,,,0.00,meteohub,2013-09-08 06:24:00,
2013-09-08 01:29:00,78.4,71.8,29.86,SE,125,0.0,2.0,80,0.00,,,0.00,meteohub,2013-09-08 06:29:00,
2013-09-08 01:34:00,78.6,72.0,29.86,SE,126,0.0,1.0,80,0.00,,,0.00,meteohub,2013-09-08 06:34:00,
2013-09-08 01:39:00,78.6,72.0,29.86,SE,138,1.0,1.0,80,0.00,,,0.00,meteohub,2013-09-08 06:39:00,
2013-09-08 01:44:00,79.0,72.3,29.86,SE,134,1.0,2.0,80,0.00,,,0.00,meteohub,2013-09-08 06:44:00,
2013-09-08 01:49:00,79.0,72.3,29.86,SE,134,1.0,2.0,80,0.00,,,0.00,meteohub,2013-09-08 06:49:00,
2013-09-08 01:54:00,79.2,72.5,29.86,SSE,153,1.0,2.0,80,0.00,,,0.00,meteohub,2013-09-08 06:54:00,
2013-09-08 01:59:00,79.0,72.3,29.86,SSE,153,1.0,2.0,80,0.00,,,0.00,meteohub,2013-09-08 06:59:00,
2013-09-08 02:04:00,78.8,72.1,29.85,SE,139,1.0,2.0,80,0.00,,,0.00,meteohub,2013-09-08 07:04:00,
2013-09-08 02:09:00,78.8,72.1,29.85,SE,132,1.0,2.0,80,0.00,,,0.00,meteohub,2013-09-08 07:09:00,
2013-09-08 02:14:00,78.8,72.1,29.85,SE,134,2.0,2.0,80,0.00,,,0.00,meteohub,2013-09-08 07:14:00,
2013-09-08 02:19:00,78.6,72.0,29.85,SE,146,2.0,2.0,80,0.00,,,0.00,meteohub,2013-09-08 07:19:00,
2013-09-08 02:24:00,78.6,72.0,29.85,SSE,153,2.0,2.0,80,0.00,,,0.00,meteohub,2013-09-08 07:24:00,
2013-09-08 02:29:00,78.4,71.8,29.85,SE,146,1.0,2.0,80,0.00,,,0.00,meteohub,2013-09-08 07:29:00,
2013-09-08 02:34:00,78.4,71.8,29.85,SE,138,1.0,3.0,80,0.00,,,0.00,meteohub,2013-09-08 07:34:00,
2013-09-08 02:39:00,78.4,71.8,29.85,SE,136,1.0,3.0,80,0.00,,,0.00,meteohub,2013-09-08 07:39:00,
2013-09-08 02:44:00,78.4,71.8,29.85,SE,134,2.0,3.0,80,0.00,,,0.00,meteohub,2013-09-08 07:44:00,
2013-09-08 02:49:00,78.4,71.8,29.86,SSE,151,1.0,3.0,80,0.00,,,0.00,meteohub,2013-09-08 07:49:00,
2013-09-08 02:54:00,78.3,71.6,29.86,SE,127,0.0,3.0,80,0.00,,,0.00,meteohub,2013-09-08 07:54:00,
2013-09-08 02:59:00,78.3,71.6,29.86,SE,127,0.0,3.0,80,0.00,,,0.00,meteohub,2013-09-08 07:59:00,
2013-09-08 03:04:00,78.3,71.6,29.86,SE,127,0.0,3.0,80,0.00,,,0.00,meteohub,2013-09-08 08:04:00,
2013-09-08 03:09:00,78.1,71.4,29.85,SE,127,0.0,2.0,80,0.00,,,0.00,meteohub,2013-09-08 08:09:00,
2013-09-08 03:15:00,78.1,71.4,29.85,SE,127,0.0,0.0,80,0.00,,,0.00,meteohub,2013-09-08 08:15:00,
2013-09-08 03:20:00,78.1,71.4,29.86,SE,127,0.0,0.0,80,0.00,,,0.00,meteohub,2013-09-08 08:20:00,
2013-09-08 03:25:00,78.1,71.4,29.85,SE,127,0.0,0.0,80,0.00,,,0.00,meteohub,2013-09-08 08:25:00,
2013-09-08 03:30:00,78.1,71.4,29.85,SE,127,0.0,0.0,80,0.00,,,0.00,meteohub,2013-09-08 08:30:00,
2013-09-08 03:35:00,78.1,71.4,29.85,SE,127,0.0,0.0,80,0.00,,,0.00,meteohub,2013-09-08 08:35:00,
2013-09-08 03:40:00,78.1,71.4,29.85,SE,127,0.0,0.0,80,0.00,,,0.00,meteohub,2013-09-08 08:40:00,
2013-09-08 03:45:00,78.1,71.4,29.85,SE,127,0.0,0.0,80,0.00,,,0.00,meteohub,2013-09-08 08:45:00,
2013-09-08 03:50:00,77.9,70.9,29.85,SE,127,0.0,0.0,79,0.00,,,0.00,meteohub,2013-09-08 08:50:00,
2013-09-08 03:55:00,77.9,70.9,29.85,SE,127,0.0,0.0,79,0.00,,,0.00,meteohub,2013-09-08 08:55:00,
2013-09-08 04:00:00,77.7,70.7,29.85,SE,127,0.0,0.0,79,0.00,,,0.00,meteohub,2013-09-08 09:00:00,
2013-09-08 04:05:00,77.7,70.7,29.85,SE,127,0.0,0.0,79,0.00,,,0.00,meteohub,2013-09-08 09:05:00,
2013-09-08 04:11:00,77.7,70.7,29.85,NW,304,0.0,0.0,79,0.00,,,0.00,meteohub,2013-09-08 09:11:00,
2013-09-08 04:16:00,77.7,70.7,29.84,NW,304,0.0,0.0,79,0.00,,,0.00,meteohub,2013-09-08 09:16:00,
2013-09-08 04:21:00,77.5,70.5,29.85,NW,304,0.0,0.0,79,0.00,,,0.00,meteohub,2013-09-08 09:21:00,
2013-09-08 04:26:00,77.4,70.3,29.85,NW,304,0.0,0.0,79,0.00,,,0.00,meteohub,2013-09-08 09:26:00,
2013-09-08 04:31:00,77.2,70.2,29.85,NW,304,0.0,0.0,79,0.00,,,0.00,meteohub,2013-09-08 09:31:00,
2013-09-08 04:36:00,77.2,70.2,29.85,NW,304,0.0,0.0,79,0.00,,,0.00,meteohub,2013-09-08 09:36:00,
2013-09-08 04:41:00,77.2,70.2,29.85,WNW,303,0.0,0.0,79,0.00,,,0.00,meteohub,2013-09-08 09:41:00,
2013-09-08 04:46:00,77.0,70.0,29.85,NW,304,1.0,0.0,79,0.00,,,0.00,meteohub,2013-09-08 09:46:00,
2013-09-08 04:51:00,76.8,69.8,29.85,NW,304,0.0,2.0,79,0.00,,,0.00,meteohub,2013-09-08 09:51:00,
2013-09-08 04:56:00,76.6,69.6,29.85,WNW,303,0.0,2.0,79,0.00,,,0.00,meteohub,2013-09-08 09:56:00,
2013-09-08 05:01:00,76.6,69.6,29.85,NW,304,0.0,2.0,79,0.00,,,0.00,meteohub,2013-09-08 10:01:00,
2013-09-08 05:07:00,76.6,69.6,29.85,NW,304,0.0,1.0,79,0.00,,,0.00,meteohub,2013-09-08 10:07:00,
2013-09-08 05:12:00,76.5,69.4,29.84,WNW,303,0.0,1.0,79,0.00,,,0.00,meteohub,2013-09-08 10:12:00,
2013-09-08 05:17:00,76.5,69.4,29.84,WNW,303,0.0,1.0,79,0.00,,,0.00,meteohub,2013-09-08 10:17:00,
2013-09-08 05:22:00,76.5,69.4,29.85,WNW,300,0.0,1.0,79,0.00,,,0.00,meteohub,2013-09-08 10:22:00,
2013-09-08 05:27:00,76.5,69.4,29.85,WNW,301,2.0,2.0,79,0.00,,,0.00,meteohub,2013-09-08 10:27:00,
2013-09-08 05:32:00,76.5,69.4,29.85,NW,316,2.0,4.0,79,0.00,,,0.00,meteohub,2013-09-08 10:32:00,
2013-09-08 05:37:00,76.5,69.4,29.85,NW,323,1.0,4.0,79,0.00,,,0.00,meteohub,2013-09-08 10:37:00,
2013-09-08 05:42:00,76.3,69.3,29.84,NW,323,1.0,4.0,79,0.00,,,0.00,meteohub,2013-09-08 10:42:00,
2013-09-08 05:47:00,76.3,69.3,29.84,NW,326,3.0,4.0,79,0.00,,,0.00,meteohub,2013-09-08 10:47:00,
2013-09-08 05:52:00,76.3,68.9,29.85,NW,316,3.0,3.0,78,0.00,,,0.00,meteohub,2013-09-08 10:52:00,
2013-09-08 05:57:00,76.3,68.9,29.85,NW,309,2.0,3.0,78,0.00,,,0.00,meteohub,2013-09-08 10:57:00,
2013-09-08 06:02:00,76.3,68.9,29.85,NW,313,1.0,4.0,78,0.00,,,0.00,meteohub,2013-09-08 11:02:00,
2013-09-08 06:07:00,76.3,68.9,29.85,NNW,335,1.0,4.0,78,0.00,,,0.00,meteohub,2013-09-08 11:07:00,
2013-09-08 06:12:00,76.1,68.7,29.85,North,353,1.0,4.0,78,0.00,,,0.00,meteohub,2013-09-08 11:12:00,
2013-09-08 06:17:00,76.1,68.7,29.84,NNE,20,0.0,2.0,78,0.00,,,0.00,meteohub,2013-09-08 11:17:00,
2013-09-08 06:22:00,75.9,68.5,29.84,NNE,17,1.0,2.0,78,0.00,,,0.00,meteohub,2013-09-08 11:22:00,
2013-09-08 06:27:00,75.9,68.5,29.84,NNE,13,1.0,2.0,78,0.00,,,0.00,meteohub,2013-09-08 11:27:00,
2013-09-08 06:32:00,75.9,68.5,29.84,North,11,1.0,2.0,78,0.00,,,0.00,meteohub,2013-09-08 11:32:00,
2013-09-08 06:37:00,75.9,68.5,29.84,NNW,338,0.0,2.0,78,0.00,,,0.00,meteohub,2013-09-08 11:37:00,
2013-09-08 06:42:00,75.9,68.5,29.85,North,0,2.0,2.0,78,0.00,,,0.00,meteohub,2013-09-08 11:42:00,
2013-09-08 06:47:00,75.9,68.5,29.85,North,8,1.0,3.0,78,0.00,,,0.00,meteohub,2013-09-08 11:47:00,
2013-09-08 06:52:00,75.7,68.0,29.85,NNE,24,2.0,3.0,77,0.00,,,0.00,meteohub,2013-09-08 11:52:00,
2013-09-08 06:57:00,75.7,68.0,29.86,NNE,23,0.0,3.0,77,0.00,,,0.00,meteohub,2013-09-08 11:57:00,
2013-09-08 07:02:00,75.7,68.0,29.86,ENE,66,2.0,3.0,77,0.00,,,0.00,meteohub,2013-09-08 12:02:00,
2013-09-08 07:07:00,75.6,67.8,29.86,NE,40,1.0,4.0,77,0.00,,,0.00,meteohub,2013-09-08 12:07:00,
2013-09-08 07:12:00,75.6,67.8,29.86,NE,39,2.0,4.0,77,0.00,,,0.00,meteohub,2013-09-08 12:12:00,
2013-09-08 07:17:00,75.6,67.8,29.86,NE,37,1.0,4.0,77,0.00,,,0.00,meteohub,2013-09-08 12:17:00,
2013-09-08 07:22:00,75.7,68.0,29.86,North,10,3.0,3.0,77,0.00,,,0.00,meteohub,2013-09-08 12:22:00,
2013-09-08 07:27:00,75.7,68.0,29.86,NNE,33,3.0,4.0,77,0.00,,,0.00,meteohub,2013-09-08 12:27:00,
2013-09-08 07:32:00,75.6,67.8,29.86,NNE,25,4.0,5.0,77,0.00,,,0.00,meteohub,2013-09-08 12:32:00,
2013-09-08 07:37:00,75.6,67.8,29.86,North,0,3.0,5.0,77,0.00,,,0.00,meteohub,2013-09-08 12:37:00,
2013-09-08 07:42:00,75.6,67.8,29.86,NNE,19,1.0,5.0,77,0.00,,,0.00,meteohub,2013-09-08 12:42:00,
2013-09-08 07:47:00,75.6,67.8,29.86,NNE,18,4.0,4.0,77,0.00,,,0.00,meteohub,2013-09-08 12:47:00,
2013-09-08 07:52:00,75.6,67.8,29.87,NNE,23,2.0,5.0,77,0.00,,,0.00,meteohub,2013-09-08 12:52:00,
2013-09-08 07:57:00,75.6,67.8,29.87,NE,41,1.0,5.0,77,0.00,,,0.00,meteohub,2013-09-08 12:57:00,
2013-09-08 08:02:00,75.6,67.5,29.87,North,8,3.0,5.0,76,0.00,,,0.00,meteohub,2013-09-08 13:02:00,
2013-09-08 08:07:00,75.6,67.5,29.87,NNE,26,3.0,5.0,76,0.00,,,0.00,meteohub,2013-09-08 13:07:00,
2013-09-08 08:12:00,75.7,67.6,29.87,North,9,1.0,4.0,76,0.00,,,0.00,meteohub,2013-09-08 13:12:00,
2013-09-08 08:17:00,75.7,67.6,29.87,North,0,3.0,5.0,76,0.00,,,0.00,meteohub,2013-09-08 13:17:00,
2013-09-08 08:22:00,75.9,67.8,29.87,NE,46,2.0,5.0,76,0.00,,,0.00,meteohub,2013-09-08 13:22:00,
2013-09-08 08:27:00,75.9,67.8,29.88,ENE,65,3.0,7.0,76,0.00,,,0.00,meteohub,2013-09-08 13:27:00,
2013-09-08 08:32:00,76.1,68.0,29.88,NE,54,4.0,7.0,76,0.00,,,0.00,meteohub,2013-09-08 13:32:00,
2013-09-08 08:37:00,76.3,67.8,29.88,NE,44,4.0,7.0,75,0.00,,,0.00,meteohub,2013-09-08 13:37:00,
2013-09-08 08:42:00,76.5,68.0,29.88,North,0,1.0,7.0,75,0.00,,,0.00,meteohub,2013-09-08 13:42:00,
2013-09-08 08:47:00,77.2,68.7,29.88,NNE,18,1.0,5.0,75,0.00,,,0.00,meteohub,2013-09-08 13:47:00,
2013-09-08 08:52:00,77.5,68.5,29.88,NE,46,2.0,5.0,74,0.00,,,0.00,meteohub,2013-09-08 13:52:00,
2013-09-08 08:57:00,78.4,69.4,29.88,NE,44,1.0,5.0,74,0.00,,,0.00,meteohub,2013-09-08 13:57:00,
2013-09-08 09:02:00,79.0,70.0,29.87,ENE,72,2.0,5.0,74,0.00,,,0.00,meteohub,2013-09-08 14:02:00,
2013-09-08 09:07:00,79.3,70.3,29.88,NE,49,3.0,5.0,74,0.00,,,0.00,meteohub,2013-09-08 14:07:00,
2013-09-08 09:12:00,79.3,70.3,29.88,NE,40,3.0,5.0,74,0.00,,,0.00,meteohub,2013-09-08 14:12:00,
2013-09-08 09:17:00,79.3,70.3,29.88,NE,37,4.0,5.0,74,0.00,,,0.00,meteohub,2013-09-08 14:17:00,
2013-09-08 09:22:00,79.5,70.5,29.88,NE,43,1.0,6.0,74,0.00,,,0.00,meteohub,2013-09-08 14:22:00,
2013-09-08 09:27:00,79.5,70.5,29.88,NNE,20,2.0,6.0,74,0.00,,,0.00,meteohub,2013-09-08 14:27:00,
2013-09-08 09:32:00,79.3,70.3,29.88,NE,47,3.0,6.0,74,0.00,,,0.00,meteohub,2013-09-08 14:32:00,
2013-09-08 09:37:00,79.3,70.3,29.88,NE,36,3.0,5.0,74,0.00,,,0.00,meteohub,2013-09-08 14:37:00,
2013-09-08 09:42:00,79.0,70.0,29.88,NNE,22,5.0,6.0,74,0.00,,,0.00,meteohub,2013-09-08 14:42:00,
2013-09-08 09:47:00,78.8,69.8,29.88,North,353,2.0,6.0,74,0.00,,,0.00,meteohub,2013-09-08 14:47:00,
2013-09-08 09:52:00,78.8,69.8,29.88,North,0,4.0,6.0,74,0.00,,,0.00,meteohub,2013-09-08 14:52:00,
2013-09-08 09:57:00,78.8,69.8,29.88,NNE,12,4.0,6.0,74,0.00,,,0.00,meteohub,2013-09-08 14:57:00,
2013-09-08 10:02:00,79.2,70.2,29.88,NE,39,5.0,6.0,74,0.00,,,0.00,meteohub,2013-09-08 15:02:00,
2013-09-08 10:07:00,79.3,70.3,29.88,NNE,20,3.0,8.0,74,0.00,,,0.00,meteohub,2013-09-08 15:07:00,
2013-09-08 10:12:00,79.5,70.9,29.89,NE,43,2.0,9.0,75,0.00,,,0.00,meteohub,2013-09-08 15:12:00,
2013-09-08 10:17:00,80.1,71.4,29.89,North,8,2.0,9.0,75,0.00,,,0.00,meteohub,2013-09-08 15:17:00,
2013-09-08 10:22:00,80.6,72.0,29.88,NE,40,4.0,9.0,75,0.00,,,0.00,meteohub,2013-09-08 15:22:00,
2013-09-08 10:27:00,81.0,72.3,29.88,NE,49,4.0,8.0,75,0.00,,,0.00,meteohub,2013-09-08 15:27:00,
2013-09-08 10:32:00,81.7,73.0,29.88,North,359,6.0,9.0,75,0.00,,,0.00,meteohub,2013-09-08 15:32:00,
2013-09-08 10:37:00,82.2,73.0,29.88,NNE,27,4.0,10.0,74,0.00,,,0.00,meteohub,2013-09-08 15:37:00,
2013-09-08 10:42:00,82.6,73.8,29.88,NE,47,6.0,11.0,75,0.00,,,0.00,meteohub,2013-09-08 15:42:00,
2013-09-08 10:47:00,83.1,73.9,29.88,NE,43,5.0,11.0,74,0.00,,,0.00,meteohub,2013-09-08 15:47:00,
2013-09-08 10:52:00,83.3,74.1,29.88,NE,46,5.0,10.0,74,0.00,,,0.00,meteohub,2013-09-08 15:52:00,
2013-09-08 10:57:00,83.8,74.7,29.88,NE,46,4.0,10.0,74,0.00,,,0.00,meteohub,2013-09-08 15:57:00,
2013-09-08 11:02:00,84.0,74.8,29.88,NE,52,8.0,10.0,74,0.00,,,0.00,meteohub,2013-09-08 16:02:00,
2013-09-08 11:07:00,83.7,74.5,29.89,ENE,72,6.0,11.0,74,0.00,,,0.00,meteohub,2013-09-08 16:07:00,
2013-09-08 11:12:00,83.5,74.3,29.89,ENE,70,4.0,12.0,74,0.00,,,0.00,meteohub,2013-09-08 16:12:00,
2013-09-08 11:17:00,81.9,72.3,29.90,ESE,115,12.0,12.0,73,0.00,,,0.00,meteohub,2013-09-08 16:17:00,
2013-09-08 11:22:00,79.0,70.3,29.90,SE,134,13.0,22.0,75,0.00,,,0.00,meteohub,2013-09-08 16:22:00,
2013-09-08 11:27:00,77.4,69.3,29.91,ESE,109,10.0,24.0,76,0.00,,,0.00,meteohub,2013-09-08 16:27:00,
2013-09-08 11:32:00,76.5,68.4,29.90,South,170,14.0,24.0,76,0.00,,,0.00,meteohub,2013-09-08 16:32:00,
2013-09-08 11:37:00,74.8,66.4,29.90,South,173,6.0,23.0,75,0.00,,,0.00,meteohub,2013-09-08 16:37:00,
2013-09-08 11:42:00,74.1,65.3,29.89,SSE,153,3.0,19.0,74,0.00,,,0.00,meteohub,2013-09-08 16:42:00,
2013-09-08 11:47:00,73.9,65.1,29.89,South,188,6.0,15.0,74,0.00,,,0.00,meteohub,2013-09-08 16:47:00,
2013-09-08 11:52:00,73.4,64.6,29.89,SE,143,5.0,11.0,74,0.01,,,0.01,meteohub,2013-09-08 16:52:00,
2013-09-08 11:57:00,73.2,64.4,29.90,SSE,167,5.0,10.0,74,0.01,,,0.01,meteohub,2013-09-08 16:57:00,
2013-09-08 12:02:00,73.6,64.8,29.90,South,190,0.0,10.0,74,0.01,,,0.01,meteohub,2013-09-08 17:02:00,
2013-09-08 12:07:00,73.4,64.6,29.90,ESE,108,1.0,8.0,74,0.01,,,0.01,meteohub,2013-09-08 17:07:00,
2013-09-08 12:12:00,73.8,64.9,29.91,ESE,110,7.0,7.0,74,0.01,,,0.01,meteohub,2013-09-08 17:12:00,
2013-09-08 12:17:00,74.1,65.3,29.91,ESE,110,4.0,10.0,74,0.01,,,0.01,meteohub,2013-09-08 17:17:00,
2013-09-08 12:22:00,74.5,65.3,29.92,East,88,8.0,11.0,73,0.01,,,0.01,meteohub,2013-09-08 17:22:00,
2013-09-08 12:27:00,74.7,65.5,29.91,SE,132,6.0,11.0,73,0.01,,,0.01,meteohub,2013-09-08 17:27:00,
2013-09-08 12:32:00,74.8,65.7,29.91,ESE,107,7.0,12.0,73,0.01,,,0.01,meteohub,2013-09-08 17:32:00,
2013-09-08 12:37:00,74.7,65.5,29.90,ENE,77,7.0,14.0,73,0.01,,,0.01,meteohub,2013-09-08 17:37:00,
2013-09-08 12:42:00,74.3,65.1,29.89,East,91,4.0,15.0,73,0.05,,,0.05,meteohub,2013-09-08 17:42:00,
2013-09-08 12:47:00,74.5,65.3,29.88,ENE,77,5.0,15.0,73,0.05,,,0.05,meteohub,2013-09-08 17:47:00,
2013-09-08 12:51:00,74.3,65.1,29.88,NE,56,6.0,14.0,73,0.04,,,0.05,meteohub,2013-09-08 17:51:00,
2013-09-08 12:56:00,74.1,64.9,29.87,ENE,70,4.0,11.0,73,0.04,,,0.05,meteohub,2013-09-08 17:56:00,
2013-09-08 13:01:00,74.1,64.9,29.87,East,90,6.0,10.0,73,0.04,,,0.05,meteohub,2013-09-08 18:01:00,
2013-09-08 13:06:00,74.5,65.3,29.86,East,83,4.0,10.0,73,0.04,,,0.05,meteohub,2013-09-08 18:06:00,
2013-09-08 13:11:00,74.7,65.5,29.86,ESE,113,5.0,10.0,73,0.04,,,0.05,meteohub,2013-09-08 18:11:00,
2013-09-08 13:16:00,74.5,65.3,29.86,SE,124,5.0,8.0,73,0.04,,,0.05,meteohub,2013-09-08 18:16:00,
2013-09-08 13:21:00,74.8,65.7,29.87,SE,139,2.0,6.0,73,0.04,,,0.05,meteohub,2013-09-08 18:21:00,
2013-09-08 13:26:00,75.0,65.8,29.87,ESE,120,1.0,6.0,73,0.04,,,0.05,meteohub,2013-09-08 18:26:00,
2013-09-08 13:31:00,74.8,65.1,29.88,SE,124,3.0,6.0,72,0.04,,,0.05,meteohub,2013-09-08 18:31:00,
2013-09-08 13:36:00,74.8,65.1,29.88,East,93,4.0,4.0,72,0.04,,,0.05,meteohub,2013-09-08 18:36:00,
2013-09-08 13:41:00,74.8,65.1,29.87,SSE,150,2.0,6.0,72,0.00,,,0.05,meteohub,2013-09-08 18:41:00,
2013-09-08 13:46:00,75.6,65.8,29.87,ESE,119,3.0,6.0,72,0.00,,,0.05,meteohub,2013-09-08 18:46:00,
2013-09-08 13:51:00,75.7,66.0,29.87,ENE,72,3.0,7.0,72,0.00,,,0.05,meteohub,2013-09-08 18:51:00,
2013-09-08 13:56:00,76.1,66.4,29.86,ENE,67,7.0,7.0,72,0.00,,,0.05,meteohub,2013-09-08 18:56:00,
2013-09-08 14:01:00,76.1,66.4,29.86,ENE,59,5.0,9.0,72,0.00,,,0.05,meteohub,2013-09-08 19:01:00,
2013-09-08 14:06:00,76.5,66.7,29.86,ENE,65,5.0,9.0,72,0.00,,,0.05,meteohub,2013-09-08 19:06:00,
2013-09-08 14:11:00,76.3,66.2,29.85,East,79,7.0,9.0,71,0.00,,,0.05,meteohub,2013-09-08 19:11:00,
2013-09-08 14:16:00,75.7,65.7,29.85,ENE,74,10.0,11.0,71,0.00,,,0.05,meteohub,2013-09-08 19:16:00,
2013-09-08 14:21:00,75.7,65.7,29.85,ENE,63,9.0,11.0,71,0.00,,,0.05,meteohub,2013-09-08 19:21:00,
2013-09-08 14:26:00,76.3,65.8,29.85,NE,42,6.0,12.0,70,0.00,,,0.05,meteohub,2013-09-08 19:26:00,
2013-09-08 14:31:00,76.8,66.2,29.85,ENE,75,8.0,12.0,70,0.00,,,0.05,meteohub,2013-09-08 19:31:00,
2013-09-08 14:36:00,76.5,66.0,29.85,ENE,75,9.0,12.0,70,0.00,,,0.05,meteohub,2013-09-08 19:36:00,
2013-09-08 14:41:00,76.8,65.8,29.84,ENE,63,9.0,12.0,69,0.00,,,0.05,meteohub,2013-09-08 19:41:00,
2013-09-08 14:46:00,77.5,66.6,29.84,NE,54,6.0,12.0,69,0.00,,,0.05,meteohub,2013-09-08 19:46:00,
2013-09-08 14:51:00,78.4,66.9,29.84,NE,49,3.0,12.0,68,0.00,,,0.05,meteohub,2013-09-08 19:51:00,
2013-09-08 14:56:00,80.2,70.0,29.83,East,84,8.0,13.0,71,0.00,,,0.05,meteohub,2013-09-08 19:56:00,
2013-09-08 15:01:00,81.1,71.6,29.82,ENE,61,11.0,13.0,73,0.00,,,0.05,meteohub,2013-09-08 20:01:00,
2013-09-08 15:06:00,81.3,71.8,29.82,ESE,105,6.0,13.0,73,0.00,,,0.05,meteohub,2013-09-08 20:06:00,
2013-09-08 15:11:00,81.9,72.3,29.82,ENE,57,5.0,14.0,73,0.00,,,0.05,meteohub,2013-09-08 20:11:00,
2013-09-08 15:16:00,82.4,72.9,29.82,ENE,77,4.0,14.0,73,0.00,,,0.05,meteohub,2013-09-08 20:16:00,
2013-09-08 15:21:00,82.2,72.7,29.82,NE,37,6.0,14.0,73,0.00,,,0.05,meteohub,2013-09-08 20:21:00,
2013-09-08 15:26:00,82.4,72.9,29.82,NE,41,4.0,12.0,73,0.00,,,0.05,meteohub,2013-09-08 20:26:00,
2013-09-08 15:31:00,82.6,73.0,29.83,NE,50,8.0,12.0,73,0.00,,,0.05,meteohub,2013-09-08 20:31:00,
2013-09-08 15:36:00,82.9,73.4,29.83,East,98,5.0,13.0,73,0.00,,,0.05,meteohub,2013-09-08 20:36:00,
2013-09-08 15:41:00,82.9,73.4,29.83,NE,41,9.0,13.0,73,0.00,,,0.05,meteohub,2013-09-08 20:41:00,
2013-09-08 15:46:00,83.3,73.4,29.82,NE,44,7.0,13.0,72,0.00,,,0.05,meteohub,2013-09-08 20:46:00,
2013-09-08 15:51:00,83.7,73.6,29.82,East,86,7.0,13.0,72,0.00,,,0.05,meteohub,2013-09-08 20:51:00,
2013-09-08 15:57:00,84.0,73.9,29.83,NE,54,8.0,15.0,72,0.00,,,0.05,meteohub,2013-09-08 20:57:00,
2013-09-08 16:02:00,84.4,74.3,29.83,East,84,12.0,15.0,72,0.00,,,0.05,meteohub,2013-09-08 21:02:00,
2013-09-08 16:07:00,84.2,74.1,29.83,ENE,70,9.0,14.0,72,0.00,,,0.05,meteohub,2013-09-08 21:07:00,
2013-09-08 16:12:00,84.6,74.5,29.83,ENE,77,7.0,14.0,72,0.00,,,0.05,meteohub,2013-09-08 21:12:00,
2013-09-08 16:17:00,84.6,74.5,29.82,ENE,64,9.0,14.0,72,0.00,,,0.05,meteohub,2013-09-08 21:17:00,
2013-09-08 16:22:00,84.6,74.5,29.82,ENE,65,6.0,11.0,72,0.00,,,0.05,meteohub,2013-09-08 21:22:00,
2013-09-08 16:27:00,84.7,74.7,29.82,East,82,7.0,13.0,72,0.00,,,0.05,meteohub,2013-09-08 21:27:00,
2013-09-08 16:32:00,84.7,74.7,29.82,ENE,71,12.0,13.0,72,0.00,,,0.05,meteohub,2013-09-08 21:32:00,
2013-09-08 16:37:00,84.4,74.8,29.82,East,82,10.0,13.0,73,0.00,,,0.05,meteohub,2013-09-08 21:37:00,
2013-09-08 16:42:00,84.4,74.3,29.82,East,89,7.0,13.0,72,0.00,,,0.05,meteohub,2013-09-08 21:42:00,
2013-09-08 16:47:00,84.4,74.8,29.82,East,94,12.0,13.0,73,0.00,,,0.05,meteohub,2013-09-08 21:47:00,
2013-09-08 16:52:00,84.4,74.3,29.82,ENE,70,8.0,13.0,72,0.00,,,0.05,meteohub,2013-09-08 21:52:00,
2013-09-08 16:57:00,84.4,74.8,29.82,ENE,75,5.0,15.0,73,0.00,,,0.05,meteohub,2013-09-08 21:57:00,
2013-09-08 17:02:00,84.4,74.8,29.81,ENE,72,7.0,15.0,73,0.00,,,0.05,meteohub,2013-09-08 22:02:00,
2013-09-08 17:07:00,84.6,75.0,29.81,ENE,69,6.0,13.0,73,0.00,,,0.05,meteohub,2013-09-08 22:07:00,
2013-09-08 17:12:00,84.7,74.7,29.82,East,93,7.0,11.0,72,0.00,,,0.05,meteohub,2013-09-08 22:12:00,
2013-09-08 17:17:00,84.7,74.3,29.83,ESE,108,5.0,12.0,71,0.00,,,0.05,meteohub,2013-09-08 22:17:00,
2013-09-08 17:22:00,84.7,74.3,29.83,East,86,11.0,12.0,71,0.00,,,0.05,meteohub,2013-09-08 22:22:00,
2013-09-08 17:27:00,84.6,74.1,29.83,ESE,113,10.0,16.0,71,0.00,,,0.05,meteohub,2013-09-08 22:27:00,
2013-09-08 17:32:00,84.6,74.1,29.83,East,82,8.0,16.0,71,0.00,,,0.05,meteohub,2013-09-08 22:32:00,
2013-09-08 17:37:00,84.6,74.1,29.83,East,90,10.0,15.0,71,0.00,,,0.05,meteohub,2013-09-08 22:37:00,
2013-09-08 17:42:00,84.4,73.9,29.83,ENE,70,8.0,15.0,71,0.00,,,0.05,meteohub,2013-09-08 22:42:00,
2013-09-08 17:47:00,84.2,74.1,29.83,East,86,7.0,15.0,72,0.00,,,0.05,meteohub,2013-09-08 22:47:00,
2013-09-08 17:52:00,84.0,73.9,29.83,ENE,74,7.0,15.0,72,0.00,,,0.05,meteohub,2013-09-08 22:52:00,
2013-09-08 17:57:00,84.0,73.9,29.83,East,98,14.0,18.0,72,0.00,,,0.05,meteohub,2013-09-08 22:57:00,
2013-09-08 18:02:00,81.9,72.7,29.83,SE,130,11.0,18.0,74,0.00,,,0.05,meteohub,2013-09-08 23:02:00,
2013-09-08 18:07:00,80.8,71.8,29.82,SE,130,7.0,18.0,74,0.00,,,0.05,meteohub,2013-09-08 23:07:00,
2013-09-08 18:12:00,80.2,70.9,29.82,ESE,116,6.0,17.0,73,0.00,,,0.05,meteohub,2013-09-08 23:12:00,
2013-09-08 18:17:00,80.4,70.9,29.82,SE,124,6.0,15.0,73,0.00,,,0.05,meteohub,2013-09-08 23:17:00,
2013-09-08 18:22:00,80.2,70.9,29.82,ESE,120,9.0,10.0,73,0.00,,,0.05,meteohub,2013-09-08 23:22:00,
2013-09-08 18:27:00,80.4,70.9,29.81,ESE,120,7.0,10.0,73,0.00,,,0.05,meteohub,2013-09-08 23:27:00,
2013-09-08 18:32:00,80.8,71.2,29.81,ESE,117,8.0,10.0,73,0.00,,,0.05,meteohub,2013-09-08 23:32:00,
2013-09-08 18:37:00,80.8,71.2,29.81,SE,132,7.0,11.0,73,0.00,,,0.05,meteohub,2013-09-08 23:37:00,
2013-09-08 18:42:00,80.6,71.1,29.82,ESE,120,4.0,11.0,73,0.00,,,0.05,meteohub,2013-09-08 23:42:00,
2013-09-08 18:47:00,80.4,70.9,29.82,SE,132,4.0,11.0,73,0.00,,,0.05,meteohub,2013-09-08 23:47:00,
2013-09-08 18:52:00,80.6,71.1,29.82,SE,124,5.0,10.0,73,0.00,,,0.05,meteohub,2013-09-08 23:52:00,
2013-09-08 18:57:00,80.8,71.2,29.82,East,90,5.0,8.0,73,0.00,,,0.05,meteohub,2013-09-08 23:57:00,
2013-09-08 19:02:00,80.8,71.2,29.82,ESE,112,5.0,7.0,73,0.00,,,0.05,meteohub,2013-09-09 00:02:00,
2013-09-08 19:07:00,81.0,71.4,29.82,ESE,113,5.0,7.0,73,0.00,,,0.00,meteohub,2013-09-09 00:07:00,
2013-09-08 19:12:00,81.1,71.6,29.82,East,98,5.0,7.0,73,0.00,,,0.00,meteohub,2013-09-09 00:12:00,
2013-09-08 19:17:00,81.3,71.8,29.81,East,84,4.0,7.0,73,0.00,,,0.00,meteohub,2013-09-09 00:17:00,
2013-09-08 19:22:00,81.7,72.1,29.81,East,89,7.0,7.0,73,0.00,,,0.00,meteohub,2013-09-09 00:22:00,
2013-09-08 19:27:00,81.9,72.3,29.81,ESE,110,12.0,12.0,73,0.00,,,0.00,meteohub,2013-09-09 00:27:00,
2013-09-08 19:32:00,81.9,72.3,29.81,ENE,76,7.0,14.0,73,0.00,,,0.00,meteohub,2013-09-09 00:32:00,
2013-09-08 19:37:00,81.7,72.1,29.82,ESE,103,6.0,14.0,73,0.00,,,0.00,meteohub,2013-09-09 00:37:00,
2013-09-08 19:42:00,81.3,71.8,29.82,East,88,7.0,14.0,73,0.00,,,0.00,meteohub,2013-09-09 00:42:00,
2013-09-08 19:47:00,81.1,71.6,29.82,ESE,103,8.0,12.0,73,0.00,,,0.00,meteohub,2013-09-09 00:47:00,
2013-09-08 19:52:00,81.1,71.6,29.82,ESE,110,6.0,12.0,73,0.00,,,0.00,meteohub,2013-09-09 00:52:00,
2013-09-08 19:57:00,81.1,71.6,29.82,ESE,108,7.0,12.0,73,0.00,,,0.00,meteohub,2013-09-09 00:57:00,
2013-09-08 20:02:00,81.0,71.4,29.82,ESE,106,6.0,12.0,73,0.00,,,0.00,meteohub,2013-09-09 01:02:00,
2013-09-08 20:07:00,81.0,71.4,29.82,ESE,109,5.0,12.0,73,0.00,,,0.00,meteohub,2013-09-09 01:07:00,
2013-09-08 20:12:00,80.8,71.2,29.83,ESE,104,5.0,10.0,73,0.00,,,0.00,meteohub,2013-09-09 01:12:00,
2013-09-08 20:17:00,80.4,70.9,29.83,East,95,3.0,10.0,73,0.00,,,0.00,meteohub,2013-09-09 01:17:00,
2013-09-08 20:22:00,80.2,70.9,29.83,East,81,3.0,10.0,73,0.00,,,0.00,meteohub,2013-09-09 01:22:00,
2013-09-08 20:27:00,80.2,70.9,29.83,ENE,77,4.0,8.0,73,0.00,,,0.00,meteohub,2013-09-09 01:27:00,
2013-09-08 20:32:00,80.2,70.9,29.83,East,82,3.0,10.0,73,0.00,,,0.00,meteohub,2013-09-09 01:32:00,
2013-09-08 20:37:00,80.1,70.7,29.83,ENE,70,2.0,10.0,73,0.00,,,0.00,meteohub,2013-09-09 01:37:00,
2013-09-08 20:42:00,80.1,70.7,29.84,ENE,68,3.0,10.0,73,0.00,,,0.00,meteohub,2013-09-09 01:42:00,
2013-09-08 20:47:00,79.9,70.5,29.84,ENE,66,5.0,5.0,73,0.00,,,0.00,meteohub,2013-09-09 01:47:00,
2013-09-08 20:52:00,79.9,70.5,29.84,ENE,68,2.0,5.0,73,0.00,,,0.00,meteohub,2013-09-09 01:52:00,
2013-09-08 20:57:00,79.9,70.5,29.84,NE,56,3.0,5.0,73,0.00,,,0.00,meteohub,2013-09-09 01:57:00,
2013-09-08 21:02:00,79.9,70.0,29.84,ENE,74,5.0,5.0,72,0.00,,,0.00,meteohub,2013-09-09 02:02:00,
2013-09-08 21:07:00,79.9,70.0,29.84,ENE,63,2.0,6.0,72,0.00,,,0.00,meteohub,2013-09-09 02:07:00,
2013-09-08 21:12:00,79.9,70.0,29.84,East,81,3.0,6.0,72,0.00,,,0.00,meteohub,2013-09-09 02:12:00,
2013-09-08 21:17:00,79.9,70.0,29.84,East,91,2.0,6.0,72,0.00,,,0.00,meteohub,2013-09-09 02:17:00,
2013-09-08 21:22:00,79.9,70.0,29.84,East,81,1.0,5.0,72,0.00,,,0.00,meteohub,2013-09-09 02:22:00,
2013-09-08 21:27:00,79.9,70.0,29.84,ENE,73,2.0,5.0,72,0.00,,,0.00,meteohub,2013-09-09 02:27:00,
2013-09-08 21:32:00,79.7,69.8,29.84,ENE,77,2.0,6.0,72,0.00,,,0.00,meteohub,2013-09-09 02:32:00,
2013-09-08 21:37:00,79.9,70.0,29.84,ENE,62,3.0,6.0,72,0.00,,,0.00,meteohub,2013-09-09 02:37:00,
2013-09-08 21:42:00,79.9,70.0,29.84,ESE,105,1.0,6.0,72,0.00,,,0.00,meteohub,2013-09-09 02:42:00,
2013-09-08 21:47:00,79.7,69.8,29.84,ESE,103,1.0,4.0,72,0.00,,,0.00,meteohub,2013-09-09 02:47:00,
2013-09-08 21:52:00,79.9,70.0,29.84,SE,130,2.0,4.0,72,0.00,,,0.00,meteohub,2013-09-09 02:52:00,
2013-09-08 21:57:00,79.7,69.8,29.85,SE,143,2.0,4.0,72,0.00,,,0.00,meteohub,2013-09-09 02:57:00,
2013-09-08 22:02:00,79.3,69.4,29.85,SE,124,1.0,4.0,72,0.00,,,0.00,meteohub,2013-09-09 03:02:00,
2013-09-08 22:07:00,79.0,68.7,29.85,ESE,115,1.0,4.0,71,0.00,,,0.00,meteohub,2013-09-09 03:07:00,
2013-09-08 22:12:00,78.8,68.5,29.84,SE,127,0.0,4.0,71,0.00,,,0.00,meteohub,2013-09-09 03:12:00,
2013-09-08 22:17:00,78.6,68.4,29.84,SE,127,0.0,2.0,71,0.00,,,0.00,meteohub,2013-09-09 03:17:00,
2013-09-08 22:22:00,78.6,68.4,29.84,SE,126,0.0,2.0,71,0.00,,,0.00,meteohub,2013-09-09 03:22:00,
2013-09-08 22:27:00,78.6,68.4,29.84,SE,126,0.0,1.0,71,0.00,,,0.00,meteohub,2013-09-09 03:27:00,
2013-09-08 22:32:00,78.4,68.2,29.84,SE,126,0.0,0.0,71,0.00,,,0.00,meteohub,2013-09-09 03:32:00,
2013-09-08 22:37:00,78.3,68.0,29.84,SE,125,0.0,0.0,71,0.00,,,0.00,meteohub,2013-09-09 03:37:00,
2013-09-08 22:42:00,78.4,68.2,29.84,SE,126,0.0,0.0,71,0.00,,,0.00,meteohub,2013-09-09 03:42:00,
2013-09-08 22:47:00,78.3,67.6,29.84,SSE,149,0.0,0.0,70,0.00,,,0.00,meteohub,2013-09-09 03:47:00,
2013-09-08 22:52:00,78.1,67.5,29.84,SSE,149,0.0,0.0,70,0.00,,,0.00,meteohub,2013-09-09 03:52:00,
2013-09-08 22:57:00,78.3,67.6,29.84,SSE,149,0.0,0.0,70,0.00,,,0.00,meteohub,2013-09-09 03:57:00,
2013-09-08 23:01:00,78.3,67.6,29.84,SSE,149,0.0,0.0,70,0.00,,,0.00,meteohub,2013-09-09 04:01:00,
2013-09-08 23:02:00,78.3,67.6,29.84,SSE,149,0.0,0.0,70,0.00,,,0.00,meteohub,2013-09-09 04:02:00,
2013-09-08 23:04:00,78.3,67.6,29.84,SSE,149,0.0,0.0,70,0.00,,,0.00,meteohub,2013-09-09 04:04:00,
2013-09-08 23:05:00,78.3,67.6,29.84,SSE,149,0.0,0.0,70,0.00,,,0.00,meteohub,2013-09-09 04:05:00,
2013-09-08 23:10:00,78.3,67.6,29.84,SSE,149,0.0,0.0,70,0.00,,,0.00,meteohub,2013-09-09 04:10:00,
2013-09-08 23:15:00,78.1,67.5,29.83,SSE,149,0.0,0.0,70,0.00,,,0.00,meteohub,2013-09-09 04:15:00,
2013-09-08 23:20:00,78.1,67.5,29.83,SSE,149,1.0,0.0,70,0.00,,,0.00,meteohub,2013-09-09 04:20:00,
2013-09-08 23:25:00,77.7,67.1,29.83,SE,146,1.0,2.0,70,0.00,,,0.00,meteohub,2013-09-09 04:25:00,
2013-09-08 23:30:00,77.7,67.1,29.83,SE,146,1.0,2.0,70,0.00,,,0.00,meteohub,2013-09-09 04:30:00,
2013-09-08 23:35:00,77.5,66.9,29.83,SE,146,0.0,2.0,70,0.00,,,0.00,meteohub,2013-09-09 04:35:00,
2013-09-08 23:40:00,77.5,66.6,29.83,SE,146,0.0,2.0,69,0.00,,,0.00,meteohub,2013-09-09 04:40:00,
2013-09-08 23:45:00,77.5,66.6,29.83,SE,146,0.0,1.0,69,0.00,,,0.00,meteohub,2013-09-09 04:45:00,
2013-09-08 23:50:00,77.5,66.6,29.83,SE,146,0.0,0.0,69,0.00,,,0.00,meteohub,2013-09-09 04:50:00,
2013-09-08 23:55:00,77.4,66.4,29.83,SE,146,0.0,0.0,69,0.00,,,0.00,meteohub,2013-09-09 04:55:00,